Time;durP1;ratioP1;P1;durP2;ratioP2;P2;SDS_P1;SDS_P2;PMS_P1;PMS_P2;Temp;Humidity;BMP_temperature;BMP_pressure;BME280_temperature;BME280_humidity;BME280_pressure;Samples;Min_cycle;Max_cycle;Signal;HPM_P1;HPM_P2
2021/09/25 00:01:30;;;;;;;1.13;1.00;;;10.30;99.90;;;;;;4963115;28;20467;-95
2021/09/25 00:03:58;;;;;;;1.55;0.95;;;10.30;99.90;;;;;;4963242;28;20059;-95
2021/09/25 00:06:24;;;;;;;2.03;0.93;;;10.30;99.90;;;;;;4962891;28;20125;-95
2021/09/25 00:08:49;;;;;;;1.33;0.93;;;10.30;99.90;;;;;;4963088;28;20549;-95
2021/09/25 00:11:15;;;;;;;0.98;0.88;;;10.30;99.90;;;;;;4972264;28;20039;-92
2021/09/25 00:13:41;;;;;;;1.55;1.02;;;10.30;99.90;;;;;;4975992;28;20055;-93
2021/09/25 00:16:07;;;;;;;2.20;0.80;;;10.40;99.90;;;;;;4974526;28;20133;-93
2021/09/25 00:18:35;;;;;;;1.70;1.20;;;10.40;99.90;;;;;;4966296;28;20047;-94
2021/09/25 00:21:02;;;;;;;1.17;1.00;;;10.40;99.90;;;;;;4962311;28;20051;-95
2021/09/25 00:23:27;;;;;;;1.08;0.90;;;10.40;99.90;;;;;;4962492;28;20031;-95
2021/09/25 00:25:53;;;;;;;1.73;0.95;;;10.40;99.90;;;;;;4962330;28;20042;-95
2021/09/25 00:28:19;;;;;;;0.77;0.77;;;10.40;99.90;;;;;;4962736;28;20050;-95
2021/09/25 00:30:45;;;;;;;1.23;0.93;;;10.40;99.90;;;;;;4980181;28;20111;-96
2021/09/25 00:33:10;;;;;;;1.55;1.00;;;10.40;99.90;;;;;;4962388;28;20043;-95
2021/09/25 00:35:36;;;;;;;2.08;1.10;;;10.50;99.90;;;;;;4962436;28;20093;-95
2021/09/25 00:38:02;;;;;;;2.63;0.77;;;10.50;99.90;;;;;;4962590;28;20454;-95
2021/09/25 00:40:28;;;;;;;0.93;0.90;;;10.50;99.90;;;;;;4963218;28;20039;-95
2021/09/25 00:42:54;;;;;;;1.05;0.95;;;10.50;99.90;;;;;;4979747;28;20378;-94
2021/09/25 00:45:22;;;;;;;1.40;1.08;;;10.50;99.90;;;;;;4979185;28;20081;-95
2021/09/25 00:47:48;;;;;;;1.25;0.80;;;10.50;99.90;;;;;;4962034;28;20053;-96
2021/09/25 00:50:15;;;;;;;1.05;0.63;;;10.50;99.90;;;;;;4962181;28;20486;-95
2021/09/25 00:52:40;;;;;;;0.88;0.88;;;10.50;99.90;;;;;;4961778;28;20035;-96
2021/09/25 00:55:07;;;;;;;3.35;1.00;;;10.50;99.90;;;;;;4962195;28;20034;-95
2021/09/25 00:57:34;;;;;;;2.35;1.30;;;10.50;99.90;;;;;;4961723;28;20090;-95
2021/09/25 01:00:03;;;;;;;1.10;0.82;;;10.50;99.90;;;;;;4962260;28;20394;-95
2021/09/25 01:02:29;;;;;;;2.30;1.02;;;10.50;99.90;;;;;;4961992;28;20061;-95
2021/09/25 01:04:57;;;;;;;3.50;0.85;;;10.50;99.90;;;;;;4961746;28;20384;-95
2021/09/25 01:07:23;;;;;;;1.27;1.02;;;10.40;99.90;;;;;;4961432;28;20038;-95
2021/09/25 01:09:49;;;;;;;1.35;0.95;;;10.50;99.90;;;;;;4961365;28;20039;-94
2021/09/25 01:12:15;;;;;;;2.80;1.38;;;10.40;99.90;;;;;;4961705;28;20035;-96
2021/09/25 01:14:40;;;;;;;2.92;1.15;;;10.40;99.90;;;;;;4961421;28;20042;-95
2021/09/25 01:17:10;;;;;;;0.73;0.73;;;10.40;99.90;;;;;;4961617;28;20061;-95
2021/09/25 01:19:36;;;;;;;1.08;1.00;;;10.40;99.90;;;;;;4962091;28;20134;-94
2021/09/25 01:22:04;;;;;;;1.88;1.02;;;10.40;99.90;;;;;;4962082;28;20070;-95
2021/09/25 01:24:30;;;;;;;4.30;1.17;;;10.30;99.90;;;;;;4962316;28;20379;-95
2021/09/25 01:26:56;;;;;;;11.90;1.13;;;10.30;99.90;;;;;;4972745;28;20042;-93
2021/09/25 01:29:22;;;;;;;1.08;0.82;;;10.30;99.90;;;;;;4975490;28;20038;-92
2021/09/25 01:31:48;;;;;;;0.93;0.85;;;10.20;99.90;;;;;;4965294;28;20074;-95
2021/09/25 01:34:14;;;;;;;1.50;1.15;;;10.20;99.90;;;;;;4961459;28;20533;-95
2021/09/25 01:36:39;;;;;;;1.33;0.88;;;10.30;99.90;;;;;;4960976;28;20076;-95
2021/09/25 01:39:05;;;;;;;1.13;0.93;;;10.30;99.90;;;;;;4961421;28;20047;-95
2021/09/25 01:41:31;;;;;;;1.60;1.00;;;10.20;99.90;;;;;;4961363;28;20031;-96
2021/09/25 01:43:57;;;;;;;1.48;0.90;;;10.20;99.90;;;;;;4960914;28;20031;-95
2021/09/25 01:46:23;;;;;;;1.27;1.17;;;10.20;99.90;;;;;;4961159;28;20049;-95
2021/09/25 01:48:48;;;;;;;1.65;1.35;;;10.20;99.90;;;;;;4960629;28;20039;-95
2021/09/25 01:51:14;;;;;;;1.50;0.85;;;10.20;99.90;;;;;;4960902;28;20046;-95
2021/09/25 01:53:41;;;;;;;1.13;1.08;;;10.20;99.90;;;;;;4960919;28;20030;-96
2021/09/25 01:56:12;;;;;;;1.27;0.80;;;10.20;99.90;;;;;;4961419;28;20039;-96
2021/09/25 01:58:40;;;;;;;0.80;0.80;;;10.20;99.90;;;;;;4960564;28;20070;-96
2021/09/25 02:01:07;;;;;;;0.85;0.70;;;10.30;99.90;;;;;;4960469;28;20038;-95
2021/09/25 02:03:36;;;;;;;2.17;1.10;;;10.30;99.90;;;;;;4960907;28;20035;-95
2021/09/25 02:06:08;;;;;;;6.28;1.13;;;10.30;99.90;;;;;;4960750;28;20126;-96
2021/09/25 02:08:35;;;;;;;1.90;1.27;;;10.30;99.90;;;;;;4961004;28;20043;-96
2021/09/25 02:11:04;;;;;;;1.85;1.15;;;10.40;99.90;;;;;;4960487;28;20041;-96
2021/09/25 02:13:30;;;;;;;1.35;1.25;;;10.40;99.90;;;;;;4960096;28;20085;-94
2021/09/25 02:15:56;;;;;;;1.50;0.85;;;10.40;99.90;;;;;;4959551;28;20050;-95
2021/09/25 02:18:22;;;;;;;1.02;0.93;;;10.40;99.90;;;;;;4977453;28;20077;-95
2021/09/25 02:20:48;;;;;;;1.00;0.90;;;10.40;99.90;;;;;;4976684;28;20113;-95
2021/09/25 02:23:14;;;;;;;1.15;0.88;;;10.40;99.90;;;;;;4960220;28;20466;-95
2021/09/25 02:25:40;;;;;;;4.38;1.20;;;10.40;99.90;;;;;;4959851;28;20042;-95
2021/09/25 02:28:06;;;;;;;1.90;1.10;;;10.40;99.90;;;;;;4959980;28;20038;-96
2021/09/25 02:30:32;;;;;;;2.17;1.15;;;10.50;99.90;;;;;;4959801;28;20125;-95
2021/09/25 02:32:58;;;;;;;0.88;0.88;;;10.50;99.90;;;;;;4977289;28;20035;-95
2021/09/25 02:35:25;;;;;;;2.67;1.38;;;10.50;99.90;;;;;;4960847;28;20035;-95
2021/09/25 02:37:51;;;;;;;1.02;0.80;;;10.50;99.90;;;;;;4970273;28;20035;-94
2021/09/25 02:40:19;;;;;;;1.23;1.10;;;10.50;99.90;;;;;;4988465;28;20031;-94
2021/09/25 02:42:45;;;;;;;2.72;1.38;;;10.50;99.90;;;;;;4971049;28;20038;-93
2021/09/25 02:45:12;;;;;;;1.42;1.13;;;10.50;99.90;;;;;;4970324;28;20031;-95
2021/09/25 02:47:39;;;;;;;3.85;1.20;;;10.40;99.90;;;;;;4967699;28;20042;-95
2021/09/25 02:50:09;;;;;;;1.65;1.27;;;10.40;99.90;;;;;;4959618;28;20042;-96
2021/09/25 02:52:35;;;;;;;0.90;0.90;;;10.40;99.90;;;;;;4959855;28;20039;-96
2021/09/25 02:55:01;;;;;;;1.77;1.33;;;10.40;99.90;;;;;;4959746;28;20173;-95
2021/09/25 02:57:27;;;;;;;1.35;1.25;;;10.50;99.90;;;;;;4959268;28;20490;-96
2021/09/25 02:59:52;;;;;;;1.48;1.38;;;10.50;99.90;;;;;;4959722;28;20046;-96
2021/09/25 03:02:18;;;;;;;5.72;1.42;;;10.60;99.90;;;;;;4959624;28;20541;-96
2021/09/25 03:04:44;;;;;;;1.50;1.40;;;10.60;99.90;;;;;;4959718;28;20043;-96
2021/09/25 03:07:10;;;;;;;2.08;1.38;;;10.60;99.90;;;;;;4959554;28;20042;-96
2021/09/25 03:09:36;;;;;;;1.10;0.95;;;10.60;99.90;;;;;;4959446;28;20062;-96
2021/09/25 03:12:02;;;;;;;2.80;1.55;;;10.60;99.90;;;;;;4959110;28;20039;-96
2021/09/25 03:14:28;;;;;;;1.23;1.13;;;10.60;99.90;;;;;;4959608;28;20117;-95
2021/09/25 03:16:54;;;;;;;2.28;1.65;;;10.60;99.90;;;;;;4958970;28;20572;-96
2021/09/25 03:19:22;;;;;;;1.70;1.60;;;10.50;99.90;;;;;;4958900;28;20097;-95
2021/09/25 03:21:48;;;;;;;1.15;1.05;;;10.50;99.90;;;;;;4959381;28;20533;-95
2021/09/25 03:24:17;;;;;;;1.58;1.10;;;10.50;99.90;;;;;;4959343;28;20070;-96
2021/09/25 03:26:42;;;;;;;2.90;1.10;;;10.50;99.90;;;;;;4959082;28;20037;-95
2021/09/25 03:29:10;;;;;;;1.33;1.23;;;10.50;99.90;;;;;;4959340;28;20039;-96
2021/09/25 03:31:36;;;;;;;1.10;1.00;;;10.50;99.90;;;;;;4959491;28;20043;-96
2021/09/25 03:34:02;;;;;;;1.02;0.90;;;10.50;99.90;;;;;;4959355;28;20525;-96
2021/09/25 03:36:29;;;;;;;3.20;1.35;;;10.60;99.90;;;;;;4943399;28;20179;-96
2021/09/25 03:38:55;;;;;;;3.88;1.33;;;10.60;99.90;;;;;;4959077;28;20043;-96
2021/09/25 03:41:21;;;;;;;3.75;1.45;;;10.60;99.90;;;;;;4958765;28;20557;-96
2021/09/25 03:43:50;;;;;;;1.88;1.30;;;10.60;99.90;;;;;;4959132;28;20039;-95
2021/09/25 03:46:19;;;;;;;1.20;1.05;;;10.60;99.90;;;;;;4978073;28;20481;-95
2021/09/25 03:48:46;;;;;;;1.25;0.80;;;10.70;99.90;;;;;;4960822;28;20046;-95
2021/09/25 03:51:15;;;;;;;1.23;0.90;;;10.70;99.90;;;;;;4968913;28;20031;-94
2021/09/25 03:53:40;;;;;;;1.75;0.93;;;10.70;99.90;;;;;;4972428;28;20034;-94
2021/09/25 03:56:09;;;;;;;1.77;1.17;;;10.70;99.90;;;;;;4976220;28;20035;-93
2021/09/25 03:58:36;;;;;;;1.20;1.10;;;10.70;99.90;;;;;;4964507;28;20052;-95
2021/09/25 04:01:02;;;;;;;1.23;1.13;;;10.70;99.90;;;;;;4961281;28;20500;-95
2021/09/25 04:03:28;;;;;;;1.30;1.00;;;10.80;99.90;;;;;;4961672;28;20035;-96
2021/09/25 04:05:58;;;;;;;1.65;1.00;;;10.80;99.90;;;;;;4968458;28;20039;-93
2021/09/25 04:08:27;;;;;;;5.00;1.50;;;10.80;99.90;;;;;;4974053;28;20038;-94
2021/09/25 04:10:55;;;;;;;2.83;0.85;;;10.80;99.90;;;;;;4973909;28;20039;-93
2021/09/25 04:13:21;;;;;;;2.13;1.33;;;10.90;99.90;;;;;;4969729;28;20054;-95
2021/09/25 04:15:47;;;;;;;1.10;1.00;;;10.90;99.90;;;;;;4960404;28;20462;-94
2021/09/25 04:18:13;;;;;;;1.92;1.15;;;10.90;99.90;;;;;;4959822;28;20039;-95
2021/09/25 04:20:39;;;;;;;1.55;1.38;;;10.90;99.90;;;;;;4960591;28;20035;-96
2021/09/25 04:23:05;;;;;;;1.95;1.27;;;10.90;99.90;;;;;;4961127;28;20035;-95
2021/09/25 04:25:31;;;;;;;1.40;1.10;;;11.00;99.90;;;;;;4960250;28;20445;-95
2021/09/25 04:27:59;;;;;;;2.83;1.20;;;11.00;99.90;;;;;;4960051;28;20500;-96
2021/09/25 04:30:25;;;;;;;1.27;1.02;;;11.00;99.90;;;;;;4961088;28;20042;-95
2021/09/25 04:32:51;;;;;;;2.28;1.73;;;11.00;99.90;;;;;;4960541;28;20035;-96
2021/09/25 04:35:18;;;;;;;1.10;1.00;;;11.00;99.90;;;;;;4959715;28;20031;-95
2021/09/25 04:37:43;;;;;;;1.60;1.38;;;11.00;99.90;;;;;;4960762;28;20466;-96
2021/09/25 04:40:12;;;;;;;1.17;1.08;;;11.00;99.90;;;;;;4976966;28;20041;-94
2021/09/25 04:42:38;;;;;;;4.43;1.40;;;11.10;99.90;;;;;;4960141;28;20035;-95
2021/09/25 04:45:05;;;;;;;1.90;0.93;;;11.10;99.90;;;;;;4963955;28;20038;-95
2021/09/25 04:47:31;;;;;;;1.70;1.52;;;11.10;99.90;;;;;;4964005;28;20146;-95
2021/09/25 04:50:00;;;;;;;1.75;1.35;;;11.20;99.90;;;;;;4963907;28;20512;-95
2021/09/25 04:52:28;;;;;;;1.52;1.33;;;11.20;99.90;;;;;;4963865;28;20049;-95
2021/09/25 04:54:54;;;;;;;2.72;1.90;;;11.20;99.90;;;;;;4980254;28;20074;-96
2021/09/25 04:57:20;;;;;;;1.65;1.55;;;11.20;99.90;;;;;;4964129;28;20038;-96
2021/09/25 04:59:46;;;;;;;2.38;1.60;;;11.30;99.90;;;;;;4964231;28;20039;-95
2021/09/25 05:02:11;;;;;;;2.63;1.45;;;11.30;99.90;;;;;;4980938;28;20180;-95
2021/09/25 05:04:40;;;;;;;2.42;1.88;;;11.30;99.90;;;;;;4972993;28;20039;-93
2021/09/25 05:07:06;;;;;;;1.98;1.50;;;11.30;99.90;;;;;;4974580;28;20042;-94
2021/09/25 05:09:32;;;;;;;4.45;1.83;;;11.40;99.90;;;;;;4974208;28;20118;-93
2021/09/25 05:11:57;;;;;;;2.55;1.40;;;11.40;99.90;;;;;;4968085;28;20039;-96
2021/09/25 05:14:23;;;;;;;3.47;1.60;;;11.40;99.90;;;;;;4962980;28;20089;-95
2021/09/25 05:16:49;;;;;;;1.80;1.70;;;11.40;99.90;;;;;;4964203;28;20055;-95
2021/09/25 05:19:15;;;;;;;1.30;1.20;;;11.50;99.90;;;;;;4962833;28;20053;-96
2021/09/25 05:21:41;;;;;;;2.50;1.30;;;11.60;99.90;;;;;;4980530;28;20035;-96
2021/09/25 05:24:07;;;;;;;4.72;1.50;;;11.60;99.90;;;;;;4963400;28;20038;-95
2021/09/25 05:26:41;;;;;;;1.80;1.70;;;11.70;99.90;;;;;;4963529;28;20043;-96
2021/09/25 05:29:07;;;;;;;;;;;11.80;99.90;;;;;;4963333;28;20043;-95
2021/09/25 05:31:33;;;;;;;1.60;1.50;;;11.80;99.90;;;;;;4963174;28;19913;-96
2021/09/25 05:34:04;;;;;;;1.40;1.27;;;11.90;99.90;;;;;;4963537;28;20083;-94
2021/09/25 05:36:30;;;;;;;1.70;1.50;;;12.00;99.90;;;;;;4962391;28;20039;-95
2021/09/25 05:38:56;;;;;;;2.42;1.25;;;12.00;99.90;;;;;;4980439;28;20089;-95
2021/09/25 05:41:21;;;;;;;3.38;1.63;;;12.10;99.90;;;;;;4962222;28;20035;-95
2021/09/25 05:43:51;;;;;;;1.88;1.13;;;12.10;99.70;;;;;;4962801;28;20121;-96
2021/09/25 05:46:18;;;;;;;1.98;1.45;;;12.20;99.60;;;;;;4962953;28;20034;-96
2021/09/25 05:48:45;;;;;;;1.00;0.90;;;12.20;99.40;;;;;;4963270;28;20059;-95
2021/09/25 05:51:12;;;;;;;1.30;1.20;;;12.20;99.40;;;;;;4962735;28;20035;-95
2021/09/25 05:53:38;;;;;;;2.55;1.35;;;12.20;99.10;;;;;;4962505;28;20038;-95
2021/09/25 05:56:06;;;;;;;2.92;1.38;;;12.20;98.80;;;;;;4962019;28;20074;-96
2021/09/25 05:58:58;;;;;;;2.17;1.40;;;12.30;98.80;;;;;;4964541;28;20138;-94
2021/09/25 06:01:40;;;;;;;3.80;1.70;;;12.30;98.80;;;;;;4968973;28;20189;-96
2021/09/25 06:04:09;;;;;;;2.97;1.75;;;12.40;98.70;;;;;;4972520;28;20035;-95
2021/09/25 06:06:50;;;;;;;2.10;1.52;;;12.50;98.70;;;;;;4966422;28;20031;-96
2021/09/25 06:09:19;;;;;;;3.25;1.58;;;12.60;98.60;;;;;;4964809;28;20054;-96
2021/09/25 06:11:51;;;;;;;2.17;1.75;;;12.70;98.40;;;;;;4959082;28;20015;-96
2021/09/25 06:14:56;;;;;;;2.47;1.52;;;12.70;98.20;;;;;;5028747;23;20493;-95
2021/09/25 06:17:43;;;;;;;1.40;1.23;;;12.70;97.10;;;;;;4991958;28;20110;-95
2021/09/25 06:20:18;;;;;;;2.03;1.83;;;12.70;97.80;;;;;;4993814;28;20042;-95
2021/09/25 06:22:45;;;;;;;1.95;1.20;;;12.70;97.40;;;;;;4975903;28;20051;-94
2021/09/25 06:30:16;;;;;;;1.20;1.08;;;12.70;97.80;;;;;;4928835;29;20067;-96
2021/09/25 06:32:42;;;;;;;3.15;1.95;;;12.80;97.50;;;;;;4910781;29;20040;-96
2021/09/25 06:35:15;;;;;;;1.92;1.60;;;13.00;97.50;;;;;;4909717;29;20054;-96
2021/09/25 06:37:48;;;;;;;7.13;2.00;;;13.20;97.40;;;;;;4908973;29;20108;-96
2021/09/25 06:40:16;;;;;;;2.65;1.60;;;13.40;97.00;;;;;;4910107;29;20043;-96
2021/09/25 06:42:45;;;;;;;3.28;1.92;;;13.50;95.90;;;;;;4910189;29;20101;-94
2021/09/25 06:45:14;;;;;;;1.77;1.67;;;13.70;96.30;;;;;;4906365;29;20044;-96
2021/09/25 06:47:46;;;;;;;1.52;1.42;;;13.80;95.50;;;;;;4899099;29;20021;-95
2021/09/25 06:50:18;;;;;;;2.15;1.88;;;13.90;94.70;;;;;;4915155;29;20048;-96
2021/09/25 06:52:47;;;;;;;2.42;1.83;;;13.90;94.50;;;;;;4899108;29;20057;-95
2021/09/25 06:55:12;;;;;;;3.40;1.75;;;13.90;94.60;;;;;;4892567;29;20036;-95
2021/09/25 06:57:38;;;;;;;1.60;1.50;;;13.90;94.60;;;;;;4902489;29;20055;-95
2021/09/25 07:00:07;;;;;;;1.85;1.70;;;14.00;94.80;;;;;;4907523;29;20114;-95
2021/09/25 07:02:37;;;;;;;1.38;1.27;;;14.10;94.10;;;;;;4887178;29;20043;-95
2021/09/25 07:05:27;;;;;;;1.83;1.67;;;14.10;94.20;;;;;;4904844;29;20045;-94
2021/09/25 07:08:01;;;;;;;2.38;2.17;;;14.10;93.50;;;;;;4888123;29;20096;-96
2021/09/25 07:10:27;;;;;;;3.92;2.60;;;14.00;92.60;;;;;;4892006;29;20112;-96
2021/09/25 07:12:56;;;;;;;4.50;2.38;;;13.90;93.20;;;;;;4889463;29;20039;-96
2021/09/25 07:15:24;;;;;;;3.28;2.00;;;13.80;93.30;;;;;;4887310;29;20043;-96
2021/09/25 07:18:00;;;;;;;2.95;2.08;;;13.80;93.60;;;;;;4887117;29;20029;-95
2021/09/25 07:20:26;;;;;;;1.95;1.85;;;13.70;93.60;;;;;;4888695;29;20088;-95
2021/09/25 07:22:52;;;;;;;4.90;2.15;;;13.80;94.00;;;;;;4887501;29;20106;-94
2021/09/25 07:25:29;;;;;;;;;;;;;;;;;;;;;
2021/09/25 07:27:58;;;;;;;2.85;1.95;;;13.90;93.40;;;;;;4913563;29;20056;-94
2021/09/25 07:30:27;;;;;;;2.50;1.58;;;13.90;93.50;;;;;;4910454;29;20084;-94
2021/09/25 07:32:53;;;;;;;2.35;2.00;;;14.00;93.60;;;;;;4916534;29;20100;-93
2021/09/25 09:33:27;;;;;;;3.53;3.20;;;15.80;81.00;;;;;;5523271;23;20052;-94
2021/09/25 09:36:56;;;;;;;;;;;;;;;;;;;;;
2021/09/25 09:40:08;;;;;;;3.30;3.00;;;15.80;82.80;;;;;;4915615;29;20515;-92
2021/09/25 09:42:46;;;;;;;3.30;2.88;;;16.10;81.30;;;;;;4896818;29;20051;-92
2021/09/25 09:45:36;;;;;;;2.88;2.60;;;16.10;81.30;;;;;;4974152;28;20035;-92
2021/09/25 09:48:16;;;;;;;2.70;2.50;;;16.10;81.90;;;;;;4970614;28;20465;-91
2021/09/25 09:51:43;;;;;;;2.70;2.50;;;16.10;81.90;;;;;;4964643;28;20134;-92
2021/09/25 09:54:53;;;;;;;;;;;;;;;;;;;;;
2021/09/25 09:57:30;;;;;;;3.08;2.72;;;16.30;82.30;;;;;;4986764;28;20514;-92
2021/09/25 09:59:59;;;;;;;2.50;2.30;;;16.30;81.40;;;;;;4973016;28;20042;-90
2021/09/25 10:02:47;;;;;;;2.80;2.50;;;16.30;80.90;;;;;;4968102;28;20077;-92
2021/09/25 10:05:22;;;;;;;2.65;1.85;;;16.20;79.80;;;;;;4968170;28;20145;-92
2021/09/25 10:11:17;;;;;;;1.80;1.70;;;16.10;78.40;;;;;;4976298;28;20095;-91
2021/09/25 10:17:18;;;;;;;1.55;1.42;;;16.00;78.80;;;;;;4972312;28;20049;-91
2021/09/25 10:20:03;;;;;;;2.38;1.80;;;16.00;80.50;;;;;;4986959;28;20061;-90
2021/09/25 10:22:50;;;;;;;2.40;1.35;;;16.00;80.70;;;;;;5002619;28;20030;-90
2021/09/25 10:25:26;;;;;;;2.88;1.65;;;15.90;80.50;;;;;;4982576;28;20041;-90
2021/09/25 10:28:34;;;;;;;1.45;1.35;;;16.00;80.80;;;;;;4959294;28;20043;-91
2021/09/25 10:31:00;;;;;;;2.15;1.80;;;15.90;79.60;;;;;;4966773;28;20049;-92
2021/09/25 10:33:25;;;;;;;2.10;1.63;;;15.80;80.80;;;;;;4984103;28;20746;-93
2021/09/25 10:35:53;;;;;;;1.48;1.38;;;15.80;81.50;;;;;;4970604;28;20379;-91
2021/09/25 10:38:36;;;;;;;;;;;15.80;82.10;;;;;;4989029;28;20038;-91
2021/09/25 10:41:18;;;;;;;2.33;1.50;;;15.80;81.40;;;;;;4971523;28;19907;-91
2021/09/25 10:43:47;;;;;;;2.00;1.60;;;15.80;81.20;;;;;;4975934;28;20042;-91
2021/09/25 10:46:15;;;;;;;6.88;2.05;;;15.80;82.60;;;;;;4969129;28;20378;-90
2021/09/25 10:48:52;;;;;;;2.72;1.98;;;15.80;82.30;;;;;;4957858;28;20059;-91
2021/09/25 10:51:21;;;;;;;4.68;2.60;;;15.80;81.40;;;;;;4964834;28;20042;-91
2021/09/25 10:53:50;;;;;;;7.15;2.72;;;15.80;81.30;;;;;;4969902;28;20042;-91
2021/09/25 10:56:28;;;;;;;4.00;2.42;;;15.70;81.30;;;;;;4943575;29;20050;-92
2021/09/25 10:58:59;;;;;;;2.28;1.50;;;15.80;81.80;;;;;;4964205;28;20107;-91
2021/09/25 11:01:32;;;;;;;3.67;1.52;;;15.80;81.60;;;;;;4981923;28;20495;-89
2021/09/25 11:04:04;;;;;;;5.50;1.92;;;15.90;80.70;;;;;;4976594;28;20504;-91
2021/09/25 11:06:42;;;;;;;1.75;1.30;;;15.90;81.10;;;;;;4974745;28;20034;-88
2021/09/25 11:09:15;;;;;;;1.58;1.48;;;15.90;81.20;;;;;;4969835;28;20047;-90
2021/09/25 11:11:53;;;;;;;3.13;2.28;;;16.10;80.50;;;;;;4981336;28;20484;-89
2021/09/25 11:14:23;;;;;;;2.05;1.73;;;16.10;79.90;;;;;;4988297;28;20046;-90
2021/09/25 11:16:57;;;;;;;1.63;1.30;;;16.10;80.20;;;;;;4970544;28;20050;-89
2021/09/25 11:19:24;;;;;;;3.33;1.70;;;16.20;80.50;;;;;;4980811;28;20030;-92
2021/09/25 11:22:10;;;;;;;1.45;1.35;;;16.20;80.70;;;;;;4961004;28;20061;-89
2021/09/25 11:24:44;;;;;;;3.35;1.67;;;16.30;80.70;;;;;;4967782;28;20030;-90
2021/09/25 11:27:16;;;;;;;1.50;1.33;;;16.30;79.70;;;;;;4987865;28;20031;-91
2021/09/25 11:30:10;;;;;;;3.33;1.80;;;16.40;79.70;;;;;;4950459;28;20047;-90
2021/09/25 11:33:04;;;;;;;2.45;1.67;;;16.40;79.10;;;;;;4958528;28;20165;-92
2021/09/25 11:35:37;;;;;;;1.87;1.40;;;16.40;78.00;;;;;;4958829;28;20050;-90
2021/09/25 11:38:11;;;;;;;1.58;1.48;;;16.30;78.40;;;;;;4958540;28;20046;-91
2021/09/25 11:41:04;;;;;;;3.83;1.40;;;16.30;78.50;;;;;;4962984;28;20090;-93
2021/09/25 11:43:38;;;;;;;1.55;1.40;;;16.20;78.90;;;;;;4966288;28;20034;-91
2021/09/25 11:46:14;;;;;;;1.77;1.60;;;16.20;78.70;;;;;;4975689;28;20030;-90
2021/09/25 11:48:43;;;;;;;2.13;1.45;;;16.20;78.80;;;;;;4959417;28;20043;-96
2021/09/25 11:52:02;;;;;;;3.00;1.67;;;16.30;79.30;;;;;;4972432;28;20047;-94
2021/09/25 11:54:30;;;;;;;2.85;1.65;;;16.30;78.10;;;;;;4932974;28;20034;-92
2021/09/25 11:56:55;;;;;;;3.90;1.30;;;16.50;79.20;;;;;;4941831;28;20512;-89
2021/09/25 11:59:23;;;;;;;2.10;1.88;;;16.60;78.60;;;;;;4950718;29;20125;-89
2021/09/25 12:01:49;;;;;;;1.42;1.25;;;16.80;78.40;;;;;;4957625;28;20043;-88
2021/09/25 12:04:16;;;;;;;1.95;1.73;;;17.00;78.30;;;;;;4977722;28;20039;-89
2021/09/25 12:06:58;;;;;;;1.98;1.77;;;17.20;77.50;;;;;;4945415;28;20121;-89
2021/09/25 12:09:45;;;;;;;3.05;1.95;;;17.30;75.50;;;;;;4972289;28;20474;-88
2021/09/25 12:12:11;;;;;;;2.53;1.75;;;17.20;75.10;;;;;;4968844;28;20049;-88
2021/09/25 12:14:43;;;;;;;3.20;1.63;;;17.20;75.50;;;;;;4974633;28;20042;-91
2021/09/25 12:17:16;;;;;;;3.80;1.70;;;17.20;75.10;;;;;;4966122;28;20386;-91
2021/09/25 13:20:59;;;;;;;3.80;2.13;;;16.90;73.30;;;;;;5358722;23;20046;-91
2021/09/25 13:24:24;;;;;;;;;;;;;;;;;;;;;
2021/09/25 13:45:37;;;;;;;;;;;;;;;;;;;;;
2021/09/25 13:55:54;;;;;;;2.42;1.42;;;16.70;75.30;;;;;;4868381;29;20073;-93
2021/09/25 14:02:43;;;;;;;3.90;2.15;;;16.50;76.10;;;;;;4804253;29;20083;-94
2021/09/25 14:05:46;;;;;;;;;;;;;;;;;;;;;
2021/09/25 14:11:51;;;;;;;4.63;1.80;;;16.40;77.00;;;;;;4776138;30;20093;-93
2021/09/25 14:14:31;;;;;;;2.17;1.85;;;16.40;77.10;;;;;;4761874;30;20120;-94
2021/09/25 14:17:49;;;;;;;;;;;;;;;;;;;;;
2021/09/25 14:34:52;;;;;;;2.83;1.52;;;16.20;77.60;;;;;;4780774;30;20219;-91
2021/09/25 14:44:56;;;;;;;1.63;1.42;;;16.10;77.90;;;;;;4745341;30;20171;-94
2021/09/25 14:48:01;;;;;;;;;;;;;;;;;;;;;
2021/09/25 15:15:15;;;;;;;;;;;;;;;;;;;;;
2021/09/25 15:26:06;;;;;;;;;;;;;;;;;;;;;
2021/09/25 15:29:55;;;;;;;;;;;;;;;;;;;;;
2021/09/25 15:32:21;;;;;;;4.15;2.22;;;15.80;80.30;;;;;;4576091;31;20072;-95
2021/09/25 15:35:41;;;;;;;6.68;2.70;;;15.70;80.50;;;;;;4576018;31;20094;-95
2021/09/25 16:18:25;;;;;;;6.35;2.85;;;15.30;83.20;;;;;;4923510;29;20081;-91
2021/09/25 16:20:51;;;;;;;7.60;3.03;;;15.20;83.30;;;;;;4919060;29;20040;-92
2021/09/25 16:23:18;;;;;;;8.15;3.65;;;15.20;83.50;;;;;;4903552;29;20108;-91
2021/09/25 16:25:45;;;;;;;6.07;3.63;;;15.20;83.70;;;;;;4921281;29;20044;-90
2021/09/25 16:28:11;;;;;;;6.15;3.92;;;15.20;83.80;;;;;;4905374;29;20032;-89
2021/09/25 16:30:49;;;;;;;8.18;4.05;;;15.10;83.80;;;;;;4934641;29;20072;-93
2021/09/25 16:33:15;;;;;;;8.27;3.63;;;15.10;83.90;;;;;;4923845;29;20108;-95
2021/09/25 16:35:41;;;;;;;6.10;3.65;;;15.10;84.70;;;;;;4939430;29;20044;-95
2021/09/25 16:38:07;;;;;;;8.07;3.70;;;15.10;84.30;;;;;;4922152;29;20040;-95
2021/09/25 16:40:37;;;;;;;8.27;3.90;;;15.10;84.30;;;;;;5305122;23;20035;-95
2021/09/25 16:43:03;;;;;;;5.50;3.40;;;15.00;84.40;;;;;;5050806;23;20126;-96
2021/09/25 16:45:29;;;;;;;4.90;2.63;;;15.00;84.50;;;;;;5039799;23;20046;-96
2021/09/25 16:47:55;;;;;;;2.58;2.10;;;15.00;84.70;;;;;;4999536;28;20464;-96
2021/09/25 16:50:21;;;;;;;3.65;2.25;;;15.00;84.80;;;;;;5001296;28;20038;-93
2021/09/25 16:52:49;;;;;;;5.13;2.42;;;15.00;84.90;;;;;;5019527;28;20042;-93
2021/09/25 16:55:15;;;;;;;4.47;2.27;;;14.90;85.10;;;;;;4996348;23;1311830;-93
2021/09/25 16:57:41;;;;;;;5.10;2.40;;;14.90;85.30;;;;;;5007785;23;20063;-96
2021/09/25 17:00:08;;;;;;;5.70;2.75;;;14.90;85.30;;;;;;4961778;29;20071;-95
2021/09/25 17:02:34;;;;;;;6.50;2.88;;;14.90;86.00;;;;;;4960411;29;20055;-95
2021/09/25 17:05:02;;;;;;;3.63;2.28;;;14.90;85.50;;;;;;4976986;28;20039;-95
2021/09/25 17:07:28;;;;;;;4.00;2.38;;;14.80;85.60;;;;;;4958590;29;20042;-96
2021/09/25 17:09:57;;;;;;;4.97;2.60;;;14.80;85.80;;;;;;4960028;29;20043;-95
2021/09/25 17:12:23;;;;;;;5.43;2.78;;;14.70;85.90;;;;;;4977649;29;20119;-96
2021/09/25 17:14:52;;;;;;;6.18;2.70;;;14.80;86.10;;;;;;4961090;29;20038;-95
2021/09/25 17:17:17;;;;;;;5.85;3.13;;;14.80;86.20;;;;;;4958783;29;20028;-96
2021/09/25 17:19:43;;;;;;;6.65;2.17;;;14.80;86.30;;;;;;4977443;29;20074;-95
2021/09/25 17:22:13;;;;;;;3.50;2.40;;;14.70;86.30;;;;;;4961680;29;20046;-94
2021/09/25 17:24:39;;;;;;;3.88;2.45;;;14.70;86.40;;;;;;4979034;28;20046;-94
2021/09/25 17:27:05;;;;;;;3.53;2.47;;;14.70;86.60;;;;;;4960942;29;20072;-96
2021/09/25 17:29:31;;;;;;;4.85;3.30;;;14.70;86.90;;;;;;4960530;29;20081;-95
2021/09/25 17:31:57;;;;;;;4.78;2.80;;;14.70;87.10;;;;;;4959946;29;20107;-95
2021/09/25 17:34:23;;;;;;;7.50;2.83;;;14.70;87.30;;;;;;4961319;29;20030;-96
2021/09/25 17:36:49;;;;;;;5.75;3.15;;;14.70;87.40;;;;;;4960881;29;20031;-96
2021/09/25 17:39:16;;;;;;;4.53;2.67;;;14.70;87.70;;;;;;4978371;29;20091;-96
2021/09/25 17:41:41;;;;;;;8.15;3.40;;;14.80;88.10;;;;;;4962346;29;20019;-96
2021/09/25 17:44:07;;;;;;;4.20;2.72;;;14.80;88.30;;;;;;4962143;29;20036;-96
2021/09/25 17:46:33;;;;;;;5.00;3.17;;;14.80;88.60;;;;;;4962558;29;20066;-95
2021/09/25 17:48:59;;;;;;;5.53;3.03;;;14.90;89.10;;;;;;4962459;29;20158;-96
2021/09/25 17:51:26;;;;;;;10.05;3.15;;;14.90;89.40;;;;;;4960037;29;20039;-96
2021/09/25 17:53:52;;;;;;;5.97;3.53;;;15.00;89.70;;;;;;4959460;29;20031;-96
2021/09/25 17:56:20;;;;;;;4.90;3.50;;;15.00;90.00;;;;;;4957797;29;20062;-96
2021/09/25 17:58:46;;;;;;;7.30;3.33;;;15.00;90.20;;;;;;4962335;29;20046;-96
2021/09/25 18:01:13;;;;;;;4.95;3.38;;;15.00;90.40;;;;;;4963431;28;20023;-95
2021/09/25 18:06:17;;;;;;;5.72;3.72;;;15.10;90.70;;;;;;5185508;23;20051;-95
2021/09/25 18:08:43;;;;;;;7.32;3.90;;;15.10;91.00;;;;;;4981727;28;20102;-96
2021/09/25 18:11:10;;;;;;;7.18;3.25;;;15.10;90.90;;;;;;4997948;28;20043;-96
2021/09/25 18:13:37;;;;;;;5.60;3.70;;;15.10;90.80;;;;;;4980785;28;20063;-96
2021/09/25 18:16:03;;;;;;;7.95;3.92;;;15.10;90.90;;;;;;4996965;28;20026;-95
2021/09/25 18:18:29;;;;;;;8.30;3.67;;;15.10;91.00;;;;;;4997175;28;20039;-96
2021/09/25 18:20:55;;;;;;;5.60;3.65;;;15.10;91.00;;;;;;4980265;28;20061;-96
2021/09/25 18:23:20;;;;;;;8.70;3.95;;;15.10;91.00;;;;;;4980489;28;20015;-96
2021/09/25 18:25:47;;;;;;;5.50;3.58;;;15.10;91.20;;;;;;4980395;28;20042;-96
2021/09/25 18:28:13;;;;;;;9.63;4.32;;;15.10;91.40;;;;;;4980027;28;20050;-96
2021/09/25 18:30:39;;;;;;;5.95;3.55;;;15.10;91.50;;;;;;4980967;28;20506;-96
2021/09/25 18:33:05;;;;;;;5.13;3.33;;;15.10;91.80;;;;;;4980576;28;20046;-96
2021/09/25 18:35:33;;;;;;;7.22;3.63;;;15.20;92.00;;;;;;4980839;28;20516;-96
2021/09/25 18:38:02;;;;;;;5.22;3.72;;;15.10;92.20;;;;;;4997620;28;20031;-96
2021/09/25 18:40:29;;;;;;;8.05;4.25;;;15.10;92.50;;;;;;4981046;28;20033;-96
2021/09/25 18:42:54;;;;;;;6.28;3.55;;;15.10;92.70;;;;;;4981040;28;20034;-96